South Fork, CO (81154)

2:17 AM MST on February 08, 2016 (GMT -0700)
Mill Creek | | Change Station
CLOSE
Current Station
Personal Weather Station
Location: South Fork, CO
Elevation: 8386 ft
Nearby Weather Stations

Elev 8386 ft 37.63 °N, 106.67 °W | Updated 12 minutes ago

Partly Cloudy
Partly Cloudy
22.7 °F
Feels Like 23 °F
N
0.0
Wind Variable Wind from SSE

Today
High -- | Low -- °F
--% Chance of Precip.
Yesterday
High -- | Low -- °F
Precip. -- in
Pressure 30.42 in
Visibility 5.0 miles
Clouds Clear
Windchill 23 °F
Dew Point 6 °F
Humidity 48%
Rainfall 0.00 in
Snow Depth Not available.
7:04 AM 5:37 PM
Waning Crescent, 0% visible
METAR KPSO 080915Z AUTO 00000KT 5SM BR CLR M10/M10 A3042 RMK AO2 T10961103
Pressure 30.42 in
Visibility 5.0 miles
Clouds Clear
Windchill 23 °F
Dew Point 6 °F
Humidity 48%
Rainfall 0.00 in
Snow Depth Not available.
7:04 AM 5:37 PM
Waning Crescent, 0% visible
METAR KPSO 080915Z AUTO 00000KT 5SM BR CLR M10/M10 A3042 RMK AO2 T10961103

10-Day Weather Forecast

Almanac

Astronomy

Feb. 08, 2016 Rise Set
Actual Time
Civil Twilight
Nautical Twilight
Astronomical Twilight
Moon
Length of Visible Light
Length of Day
Tomorrow will be .
, % of the Moon is Illuminated

Today's Extremes

State Highs State Lows

Community

WunderPhotos

Upload Photos

1,891,412 photos uploaded!

WunderBlog® & News

Nearby

Air Quality

  Air Quality AQ Index Pollutant
Not available.

Snow Depth

Station Depth Elevation

Earthquake Activity

City Distance Mag. Time & Date
Minimum magnitude displayed is 2.5.

Coastal Water Temperatures

Place Temperature

Stations

Nearby Weather Stations

Station Location Temp. Windchill Dew Point Humidity Wind Precip. Elev Updated Type
                   

Watches & Warnings

There are currently no watches in effect.